createdAt,value
2022-08-19T00:01:29.236Z,10.23
2022-08-19T00:04:01.028Z,9.93
2022-08-19T00:06:29.871Z,10.53
2022-08-19T00:08:58.747Z,9.93
2022-08-19T00:11:28.763Z,10.20
2022-08-19T00:13:57.579Z,10.27
2022-08-19T00:16:27.137Z,10.07
2022-08-19T00:18:56.677Z,9.93
2022-08-19T00:21:27.928Z,10.53
2022-08-19T00:23:59.326Z,10.10
2022-08-19T00:26:28.140Z,9.60
2022-08-19T00:28:56.577Z,10.13
2022-08-19T00:31:26.375Z,9.80
2022-08-19T00:33:54.976Z,9.03
2022-08-19T00:36:23.739Z,9.83
2022-08-19T00:38:54.121Z,10.47
2022-08-19T00:41:24.220Z,9.73
2022-08-19T00:44:02.858Z,9.80
2022-08-19T00:46:31.569Z,9.80
2022-08-19T00:49:00.255Z,9.83
2022-08-19T00:51:30.304Z,9.70
2022-08-19T00:54:01.772Z,10.37
2022-08-19T00:56:31.816Z,10.63
2022-08-19T00:59:01.134Z,10.27
2022-08-19T01:01:29.547Z,10.10
2022-08-19T01:03:58.838Z,10.10
2022-08-19T01:06:28.051Z,9.47
2022-08-19T01:08:56.947Z,9.57
2022-08-19T01:11:26.907Z,9.73
2022-08-19T01:13:55.864Z,9.90
2022-08-19T01:16:25.372Z,9.57
2022-08-19T01:18:53.999Z,8.93
2022-08-19T01:21:25.816Z,9.73
2022-08-19T01:23:56.008Z,10.20
2022-08-19T01:26:26.889Z,11.70
2022-08-19T01:28:57.448Z,11.27
2022-08-19T01:31:32.894Z,11.77
2022-08-19T01:34:02.261Z,12.70
2022-08-19T01:36:35.363Z,11.30
2022-08-19T01:39:09.283Z,10.13
2022-08-19T01:41:38.333Z,10.30
2022-08-19T01:44:18.539Z,16.43
2022-08-19T01:46:49.419Z,15.03
2022-08-19T01:49:18.613Z,13.60
2022-08-19T01:51:47.076Z,16.83
2022-08-19T01:54:27.504Z,16.63
2022-08-19T01:56:58.736Z,16.93
2022-08-19T01:59:28.991Z,16.37
2022-08-19T02:01:57.397Z,16.87
2022-08-19T02:04:26.510Z,16.40
2022-08-19T02:06:55.239Z,15.20
2022-08-19T02:09:25.051Z,14.13
2022-08-19T02:11:54.386Z,14.67
2022-08-19T02:14:23.188Z,15.63
2022-08-19T02:16:51.563Z,14.43
2022-08-19T02:19:19.968Z,10.67
2022-08-19T02:21:49.612Z,11.20
2022-08-19T02:24:18.024Z,14.83
2022-08-19T02:26:47.798Z,13.03
2022-08-19T02:29:16.728Z,13.97
2022-08-19T02:31:45.156Z,12.80
2022-08-19T02:34:13.599Z,13.83
2022-08-19T02:36:42.741Z,12.37
2022-08-19T02:39:10.538Z,11.43
2022-08-19T02:41:38.900Z,9.37
2022-08-19T02:44:29.448Z,10.63
2022-08-19T02:46:57.570Z,12.50
2022-08-19T02:49:26.383Z,13.70
2022-08-19T02:51:55.368Z,15.53
2022-08-19T02:54:23.785Z,16.03
2022-08-19T02:56:52.737Z,15.47
2022-08-19T02:59:23.106Z,12.83
2022-08-19T03:01:51.686Z,11.17
2022-08-19T03:04:20.510Z,12.50
2022-08-19T03:06:49.887Z,14.20
2022-08-19T03:09:19.090Z,13.23
2022-08-19T03:11:48.679Z,14.00
2022-08-19T03:14:22.598Z,15.07
2022-08-19T03:16:52.208Z,16.23
2022-08-19T03:19:22.284Z,17.03
2022-08-19T03:21:50.995Z,15.53
2022-08-19T03:24:20.961Z,15.27
2022-08-19T03:26:50.471Z,16.50
2022-08-19T03:29:28.373Z,16.83
2022-08-19T03:32:01.726Z,17.80
2022-08-19T03:34:31.806Z,17.23
2022-08-19T03:37:01.543Z,16.27
2022-08-19T03:39:30.542Z,15.33
2022-08-19T03:42:32.753Z,15.73
2022-08-19T03:44:49.626Z,14.80
2022-08-19T03:47:19.329Z,14.73
2022-08-19T03:49:47.716Z,14.43
2022-08-19T03:52:16.811Z,13.73
2022-08-19T03:54:45.946Z,13.77
2022-08-19T03:57:14.241Z,14.37
2022-08-19T03:59:42.700Z,12.93
2022-08-19T04:02:12.249Z,13.73
2022-08-19T04:04:43.525Z,14.20
2022-08-19T04:07:13.929Z,13.13
2022-08-19T04:09:42.233Z,13.40
2022-08-19T04:12:11.826Z,13.20
2022-08-19T04:14:40.613Z,12.20
2022-08-19T04:17:08.928Z,12.33
2022-08-19T04:19:38.310Z,12.10
2022-08-19T04:22:08.212Z,12.03
2022-08-19T04:24:36.618Z,12.07
2022-08-19T04:27:07.162Z,12.70
2022-08-19T04:29:35.895Z,11.40
2022-08-19T04:32:08.708Z,11.00
2022-08-19T04:35:02.640Z,12.20
2022-08-19T04:37:34.686Z,11.90
2022-08-19T04:40:21.503Z,11.43
2022-08-19T04:42:49.837Z,10.73
2022-08-19T04:45:18.257Z,11.03
2022-08-19T04:47:57.982Z,10.93
2022-08-19T04:50:27.740Z,10.40
2022-08-19T04:52:57.796Z,11.10
2022-08-19T04:55:27.497Z,11.13
2022-08-19T04:57:56.294Z,11.27
2022-08-19T05:00:24.914Z,10.70
2022-08-19T05:02:53.386Z,11.33
2022-08-19T05:05:22.487Z,11.10
2022-08-19T05:07:50.929Z,10.43
2022-08-19T05:10:21.569Z,10.63
2022-08-19T05:12:49.972Z,9.93
2022-08-19T05:15:18.382Z,10.13
2022-08-19T05:18:06.669Z,10.37
2022-08-19T05:20:52.678Z,10.07
2022-08-19T05:23:22.963Z,10.80
2022-08-19T05:25:52.953Z,10.20
2022-08-19T05:28:22.049Z,10.47
2022-08-19T05:30:51.923Z,9.60
2022-08-19T05:33:20.743Z,10.23
2022-08-19T05:35:49.517Z,10.57
2022-08-19T05:38:17.917Z,9.80
2022-08-19T05:40:50.556Z,9.83
2022-08-19T05:43:20.390Z,10.73
2022-08-19T05:45:48.687Z,10.77
2022-08-19T05:48:18.440Z,9.53
2022-08-19T05:50:47.567Z,8.97
2022-08-19T05:53:17.373Z,9.70
2022-08-19T05:55:45.802Z,8.77
2022-08-19T05:58:14.440Z,9.63
2022-08-19T06:00:45.646Z,9.77
2022-08-19T06:03:13.977Z,9.53
2022-08-19T06:05:46.160Z,10.00
2022-08-19T06:08:20.639Z,10.17
2022-08-19T06:11:14.442Z,9.63
2022-08-19T06:13:42.793Z,9.87
2022-08-19T06:16:12.562Z,9.57
2022-08-19T06:18:40.989Z,10.00
2022-08-19T06:21:09.303Z,9.13
2022-08-19T06:23:38.431Z,9.17
2022-08-19T06:26:06.933Z,8.87
2022-08-19T06:28:35.221Z,9.80
2022-08-19T06:31:08.487Z,9.17
2022-08-19T06:33:38.337Z,8.47
2022-08-19T06:36:07.443Z,8.90
2022-08-19T06:38:35.914Z,8.47
2022-08-19T06:41:07.690Z,8.10
2022-08-19T06:43:42.150Z,9.00
2022-08-19T06:46:15.014Z,8.67
2022-08-19T06:48:45.897Z,8.73
2022-08-19T06:51:16.617Z,8.47
2022-08-19T06:56:18.038Z,9.03
2022-08-19T06:58:47.591Z,9.13
2022-08-19T07:01:16.321Z,8.73
2022-08-19T07:03:47.415Z,8.93
2022-08-19T07:06:43.717Z,8.30
2022-08-19T07:09:07.811Z,8.13
2022-08-19T07:11:36.346Z,8.90
2022-08-19T07:14:05.219Z,8.83
2022-08-19T07:16:33.678Z,8.60
2022-08-19T07:19:14.486Z,8.53
2022-08-19T07:21:48.243Z,9.03
2022-08-19T07:24:18.019Z,9.40
2022-08-19T07:26:46.805Z,8.83
2022-08-19T07:29:21.531Z,8.93
2022-08-19T07:31:53.170Z,8.80
2022-08-19T07:34:24.260Z,9.57
2022-08-19T07:36:53.107Z,9.30
2022-08-19T07:39:22.937Z,10.03
2022-08-19T07:41:51.686Z,9.23
2022-08-19T07:44:21.534Z,10.00
2022-08-19T07:46:53.326Z,9.77
2022-08-19T07:49:22.314Z,9.50
2022-08-19T07:51:53.258Z,9.53
2022-08-19T07:54:22.252Z,9.70
2022-08-19T07:56:52.403Z,9.80
2022-08-19T07:59:21.561Z,9.27
2022-08-19T08:01:51.378Z,9.53
2022-08-19T08:04:37.622Z,9.50
2022-08-19T08:07:25.361Z,9.70
2022-08-19T08:10:00.753Z,9.95
2022-08-19T08:12:35.309Z,8.40
2022-08-19T08:15:08.888Z,8.95
2022-08-19T08:17:49.651Z,8.80
2022-08-19T08:20:20.223Z,8.50
2022-08-19T08:23:08.582Z,8.83
2022-08-19T08:25:37.604Z,8.60
2022-08-19T08:28:06.722Z,9.47
2022-08-19T08:30:36.978Z,8.50
2022-08-19T08:33:06.391Z,8.50
2022-08-19T08:35:35.474Z,8.60
2022-08-19T08:38:06.106Z,8.43
2022-08-19T08:40:40.793Z,8.30
2022-08-19T08:43:11.527Z,9.27
2022-08-19T08:45:44.681Z,8.80
2022-08-19T08:48:22.407Z,9.07
2022-08-19T08:50:54.834Z,8.60
2022-08-19T08:53:29.836Z,8.55
2022-08-19T08:56:01.326Z,8.75
2022-08-19T08:58:31.930Z,7.68
2022-08-19T09:01:00.278Z,8.45
2022-08-19T09:03:31.632Z,8.93
2022-08-19T09:06:02.813Z,9.15
2022-08-19T09:08:37.351Z,8.57
2022-08-19T09:11:07.106Z,8.45
2022-08-19T09:13:40.730Z,8.38
2022-08-19T09:16:10.157Z,8.57
2022-08-19T09:18:42.594Z,7.63
2022-08-19T09:21:11.087Z,7.78
2022-08-19T09:23:40.866Z,7.10
2022-08-19T09:26:10.332Z,6.60
2022-08-19T09:28:39.127Z,6.35
2022-08-19T09:31:12.708Z,7.78
2022-08-19T09:33:41.941Z,7.20
2022-08-19T09:36:11.378Z,7.80
2022-08-19T09:38:43.497Z,7.63
2022-08-19T09:41:13.383Z,7.55
2022-08-19T09:43:44.264Z,7.38
2022-08-19T09:46:15.739Z,7.78
2022-08-19T09:48:49.382Z,7.57
2022-08-19T09:51:18.866Z,7.97
2022-08-19T09:53:52.086Z,7.97
2022-08-19T09:56:22.135Z,7.75
2022-08-19T09:58:50.751Z,8.00
2022-08-19T10:01:20.195Z,6.93
2022-08-19T10:03:51.910Z,6.95
2022-08-19T10:06:20.295Z,7.47
2022-08-19T10:09:11.991Z,7.50
2022-08-19T10:11:48.789Z,6.88
2022-08-19T10:14:23.647Z,6.20
2022-08-19T10:16:52.549Z,6.72
2022-08-19T10:19:26.035Z,6.55
2022-08-19T10:22:00.078Z,6.60
2022-08-19T10:24:31.812Z,5.55
2022-08-19T10:27:00.300Z,6.32
2022-08-19T10:29:33.083Z,6.28
2022-08-19T10:32:02.646Z,6.97
2022-08-19T10:34:32.084Z,6.57
2022-08-19T10:37:02.156Z,6.97
2022-08-19T10:39:42.378Z,5.95
2022-08-19T10:42:14.008Z,7.03
2022-08-19T10:44:42.596Z,6.82
2022-08-19T10:47:17.383Z,5.93
2022-08-19T10:50:12.109Z,5.95
2022-08-19T10:52:49.700Z,5.93
2022-08-19T10:55:38.626Z,6.10
2022-08-19T10:58:07.360Z,5.55
2022-08-19T11:00:39.114Z,6.47
2022-08-19T11:03:07.558Z,6.20
2022-08-19T11:05:39.886Z,5.53
2022-08-19T11:08:23.447Z,5.43
2022-08-19T11:10:59.070Z,5.97
2022-08-19T11:13:27.494Z,5.35
2022-08-19T11:16:02.802Z,5.32
2022-08-19T11:18:35.198Z,5.95
2022-08-19T11:21:11.790Z,5.50
2022-08-19T11:23:40.259Z,5.22
2022-08-19T11:26:09.961Z,5.28
2022-08-19T11:28:39.547Z,5.70
2022-08-19T11:31:12.721Z,5.28
2022-08-19T11:33:41.206Z,4.88
2022-08-19T11:36:09.786Z,5.55
2022-08-19T11:38:43.609Z,5.55
2022-08-19T11:41:14.270Z,5.40
2022-08-19T11:43:42.567Z,5.30
2022-08-19T11:46:14.078Z,5.63
2022-08-19T11:48:42.450Z,5.05
2022-08-19T11:51:11.814Z,5.07
2022-08-19T11:53:41.255Z,4.35
2022-08-19T11:56:10.838Z,4.70
2022-08-19T11:58:42.859Z,4.93
2022-08-19T12:01:12.148Z,4.80
2022-08-19T12:03:41.539Z,4.70
2022-08-19T12:06:11.198Z,5.28
2022-08-19T12:08:39.638Z,5.07
2022-08-19T12:11:09.146Z,5.07
2022-08-19T12:13:37.981Z,5.32
2022-08-19T12:16:12.302Z,5.82
2022-08-19T12:18:42.891Z,5.22
2022-08-19T12:21:12.114Z,5.80
2022-08-19T12:23:40.554Z,5.57
2022-08-19T12:26:09.250Z,5.70
2022-08-19T12:28:37.889Z,5.90
2022-08-19T12:31:06.714Z,5.88
2022-08-19T12:33:36.477Z,5.45
2022-08-19T12:36:06.539Z,5.40
2022-08-19T12:38:36.299Z,5.53
2022-08-19T12:41:07.988Z,4.93
2022-08-19T12:43:36.764Z,5.53
2022-08-19T12:46:05.573Z,4.82
2022-08-19T12:48:34.731Z,5.38
2022-08-19T12:51:09.246Z,5.05
2022-08-19T12:53:39.272Z,5.03
2022-08-19T12:56:09.988Z,5.00
2022-08-19T12:58:48.687Z,4.68
2022-08-19T13:01:21.957Z,5.07
2022-08-19T13:03:53.320Z,4.25
2022-08-19T13:06:23.866Z,4.93
2022-08-19T13:08:54.539Z,4.68
2022-08-19T13:11:26.467Z,4.97
2022-08-19T13:13:56.334Z,4.57
2022-08-19T13:16:24.724Z,4.93
2022-08-19T13:18:53.929Z,4.88
2022-08-19T13:21:25.014Z,4.60
2022-08-19T13:23:53.903Z,4.40
2022-08-19T13:26:22.895Z,4.60
2022-08-19T13:29:09.182Z,4.68
2022-08-19T13:31:56.068Z,4.25
2022-08-19T13:34:29.136Z,4.88
2022-08-19T13:37:01.305Z,4.60
2022-08-19T13:39:29.609Z,4.55
2022-08-19T13:42:00.199Z,4.40
2022-08-19T13:44:30.711Z,4.88
2022-08-19T13:47:06.676Z,5.28
2022-08-19T13:49:36.215Z,4.95
2022-08-19T13:52:06.507Z,5.20
2022-08-19T13:54:34.953Z,5.05
2022-08-19T13:57:03.578Z,5.20
2022-08-19T13:59:32.030Z,5.10
2022-08-19T14:02:01.018Z,5.00
2022-08-19T14:04:29.499Z,5.07
2022-08-19T14:06:58.050Z,4.90
2022-08-19T14:09:27.757Z,4.63
2022-08-19T14:11:56.493Z,5.10
2022-08-19T14:14:24.985Z,5.50
2022-08-19T14:16:53.750Z,4.88
2022-08-19T14:19:22.501Z,4.75
2022-08-19T14:21:52.041Z,5.18
2022-08-19T14:24:20.575Z,5.07
2022-08-19T14:26:50.378Z,5.30
2022-08-19T14:29:19.233Z,5.07
2022-08-19T14:31:47.618Z,5.30
2022-08-19T14:34:16.041Z,5.45
2022-08-19T14:36:46.113Z,5.40
2022-08-19T14:39:14.419Z,5.60
2022-08-19T14:41:43.663Z,5.13
2022-08-19T14:44:14.288Z,5.40
2022-08-19T14:46:49.215Z,5.57
2022-08-19T14:49:19.101Z,5.22
2022-08-19T14:51:47.951Z,5.25
2022-08-19T14:54:16.309Z,5.40
2022-08-19T14:56:44.929Z,5.65
2022-08-19T14:59:14.875Z,6.05
2022-08-19T15:01:43.263Z,5.82
2022-08-19T15:04:12.073Z,5.78
2022-08-19T15:06:40.565Z,5.55
2022-08-19T15:09:08.875Z,6.25
2022-08-19T15:11:38.230Z,6.22
2022-08-19T15:14:07.894Z,6.00
2022-08-19T15:16:39.045Z,5.95
2022-08-19T15:19:07.783Z,6.30
2022-08-19T15:21:37.297Z,6.45
2022-08-19T15:24:06.405Z,5.65
2022-08-19T15:26:34.885Z,6.35
2022-08-19T15:29:03.750Z,6.00
2022-08-19T15:31:35.125Z,5.85
2022-08-19T15:34:06.975Z,5.78
2022-08-19T15:36:36.129Z,6.20
2022-08-19T15:39:06.342Z,5.85
2022-08-19T15:41:35.002Z,5.35
2022-08-19T15:44:09.146Z,6.10
2022-08-19T15:46:39.013Z,6.25
2022-08-19T15:49:08.907Z,6.13
2022-08-19T15:51:39.003Z,6.00
2022-08-19T15:54:08.807Z,6.40
2022-08-19T15:56:57.970Z,6.68
2022-08-19T15:59:47.440Z,6.60
2022-08-19T16:02:33.862Z,6.90
2022-08-19T16:05:21.266Z,6.45
2022-08-19T16:07:49.573Z,6.75
2022-08-19T16:10:27.294Z,6.75
2022-08-19T16:12:56.966Z,6.68
2022-08-19T16:15:25.681Z,6.55
2022-08-19T16:17:56.752Z,7.07
2022-08-19T16:20:28.179Z,6.82
2022-08-19T16:22:58.258Z,6.47
2022-08-19T16:25:30.001Z,6.65
2022-08-19T16:28:07.218Z,6.72
2022-08-19T16:30:37.689Z,6.60
2022-08-19T16:33:06.294Z,6.88
2022-08-19T16:35:35.966Z,6.53
2022-08-19T16:38:04.845Z,6.18
2022-08-19T16:40:34.322Z,6.13
2022-08-19T16:43:03.518Z,6.68
2022-08-19T16:45:32.108Z,6.35
2022-08-19T16:48:00.817Z,6.13
2022-08-19T16:50:48.175Z,6.63
2022-08-19T16:53:19.614Z,6.40
2022-08-19T16:55:50.968Z,6.82
2022-08-19T16:58:19.434Z,7.00
2022-08-19T17:00:48.788Z,6.97
2022-08-19T17:03:18.146Z,7.45
2022-08-19T17:05:46.814Z,8.30
2022-08-19T17:08:17.031Z,8.40
2022-08-19T17:11:07.878Z,8.80
2022-08-19T17:13:36.038Z,9.18
2022-08-19T17:16:04.738Z,8.35
2022-08-19T17:18:33.615Z,9.20
2022-08-19T17:21:02.691Z,9.48
2022-08-19T17:23:43.089Z,9.32
2022-08-19T17:26:17.171Z,9.48
2022-08-19T17:28:47.278Z,9.15
2022-08-19T17:31:15.760Z,9.77
2022-08-19T17:33:48.221Z,9.18
2022-08-19T17:36:17.990Z,9.55
2022-08-19T17:38:46.333Z,9.63
2022-08-19T17:41:16.043Z,9.70
2022-08-19T17:43:45.244Z,9.73
2022-08-19T17:46:17.837Z,9.77
2022-08-19T17:48:52.303Z,10.50
2022-08-19T17:51:22.269Z,9.60
2022-08-19T17:53:51.946Z,9.95
2022-08-19T17:56:21.963Z,10.07
2022-08-19T17:59:00.056Z,10.68
2022-08-19T18:01:43.797Z,10.75
2022-08-19T18:04:19.805Z,10.20
2022-08-19T18:06:53.838Z,10.50
2022-08-19T18:09:23.878Z,10.40
2022-08-19T18:11:54.638Z,12.20
2022-08-19T18:14:32.834Z,11.30
2022-08-19T18:17:03.080Z,11.40
2022-08-19T18:19:40.817Z,11.18
2022-08-19T18:22:11.021Z,11.27
2022-08-19T18:24:39.702Z,11.60
2022-08-19T18:27:10.133Z,10.95
2022-08-19T18:29:40.365Z,11.48
2022-08-19T18:32:13.309Z,11.52
2022-08-19T18:34:42.723Z,11.65
2022-08-19T18:37:11.130Z,11.30
2022-08-19T18:39:57.572Z,11.50
2022-08-19T18:42:45.042Z,10.90
2022-08-19T18:45:31.429Z,11.35
2022-08-19T18:48:25.770Z,11.77
2022-08-19T18:50:56.319Z,11.75
2022-08-19T18:53:24.746Z,11.95
2022-08-19T18:55:54.014Z,12.15
2022-08-19T18:58:26.478Z,11.90
2022-08-19T19:00:56.992Z,11.80
2022-08-19T19:03:25.835Z,13.20
2022-08-19T19:05:54.178Z,12.27
2022-08-19T19:08:27.085Z,11.90
2022-08-19T19:10:56.149Z,11.53
2022-08-19T19:13:28.502Z,12.13
2022-08-19T19:15:56.958Z,11.60
2022-08-19T19:18:25.517Z,12.80
2022-08-19T19:20:53.830Z,12.10
2022-08-19T19:23:22.580Z,12.87
2022-08-19T19:25:52.438Z,12.53
2022-08-19T19:28:27.614Z,12.00
2022-08-19T19:30:58.798Z,13.00
2022-08-19T19:33:27.138Z,11.87
2022-08-19T19:35:55.562Z,11.90
2022-08-19T19:38:24.094Z,12.43
2022-08-19T19:40:52.425Z,12.43
2022-08-19T19:43:21.278Z,12.07
2022-08-19T19:45:50.083Z,12.67
2022-08-19T19:48:19.737Z,13.10
2022-08-19T19:50:56.005Z,12.40
2022-08-19T19:53:26.214Z,12.97
2022-08-19T19:55:57.699Z,13.17
2022-08-19T19:58:28.876Z,12.57
2022-08-19T20:00:57.902Z,12.10
2022-08-19T20:03:30.058Z,12.43
2022-08-19T20:05:59.446Z,13.07
2022-08-19T20:08:45.853Z,12.40
2022-08-19T20:11:17.825Z,12.37
2022-08-19T20:13:46.305Z,13.80
2022-08-19T20:16:14.610Z,12.80
2022-08-19T20:18:44.520Z,13.77
2022-08-19T20:21:13.814Z,13.53
2022-08-19T20:23:42.126Z,13.33
2022-08-19T20:26:21.375Z,12.23
2022-08-19T20:29:06.160Z,13.27
2022-08-19T20:31:54.326Z,12.67
2022-08-19T20:34:27.853Z,12.43
2022-08-19T20:36:56.264Z,13.00
2022-08-19T20:39:24.589Z,12.50
2022-08-19T20:41:53.021Z,12.80
2022-08-19T20:44:21.634Z,12.80
2022-08-19T20:46:55.356Z,12.63
2022-08-19T20:49:27.385Z,12.13
2022-08-19T20:51:58.521Z,12.77
2022-08-19T20:54:27.646Z,13.10
2022-08-19T20:56:56.246Z,12.67
2022-08-19T20:59:25.898Z,12.87
2022-08-19T21:01:54.771Z,12.83
2022-08-19T21:04:23.861Z,12.83
2022-08-19T21:06:52.383Z,13.53
2022-08-19T21:09:22.314Z,14.40
2022-08-19T21:11:50.700Z,15.43
2022-08-19T21:14:19.564Z,15.43
2022-08-19T21:16:49.437Z,15.40
2022-08-19T21:19:22.004Z,14.87
2022-08-19T21:21:52.367Z,14.60
2022-08-19T21:24:22.105Z,16.47
2022-08-19T21:27:00.202Z,15.40
2022-08-19T21:29:28.538Z,14.63
2022-08-19T21:31:56.838Z,15.30
2022-08-19T21:34:25.410Z,15.60
2022-08-19T21:36:53.734Z,15.33
2022-08-19T21:39:23.537Z,15.63
2022-08-19T21:41:52.052Z,16.07
2022-08-19T21:44:20.355Z,14.80
2022-08-19T21:46:51.089Z,14.90
2022-08-19T21:49:19.839Z,15.37
2022-08-19T21:51:48.207Z,15.60
2022-08-19T21:54:16.527Z,15.13
2022-08-19T21:56:47.269Z,16.33
2022-08-19T21:59:16.938Z,15.33
2022-08-19T22:01:50.491Z,15.73
2022-08-19T22:04:22.674Z,15.70
2022-08-19T22:06:50.972Z,15.47
2022-08-19T22:09:19.271Z,14.83
2022-08-19T22:11:49.235Z,15.30
2022-08-19T22:14:17.545Z,15.17
2022-08-19T22:16:46.805Z,15.40
2022-08-19T22:19:15.287Z,15.50
2022-08-19T22:21:43.610Z,15.47
2022-08-19T22:24:11.917Z,15.60
2022-08-19T22:26:40.698Z,15.20
2022-08-19T22:29:10.877Z,14.97
2022-08-19T22:31:44.419Z,15.33
2022-08-19T22:34:12.777Z,14.77
2022-08-19T22:36:41.109Z,15.03
2022-08-19T22:39:10.105Z,15.60
2022-08-19T22:41:40.725Z,15.37
2022-08-19T22:44:11.685Z,14.50
2022-08-19T22:46:42.017Z,14.93
2022-08-19T22:49:10.406Z,14.30
2022-08-19T22:51:56.590Z,14.67
2022-08-19T22:54:25.121Z,13.20
2022-08-19T22:56:54.598Z,13.23
2022-08-19T22:59:23.066Z,13.20
2022-08-19T23:01:53.719Z,12.87
2022-08-19T23:04:22.959Z,13.07
2022-08-19T23:06:53.040Z,12.73
2022-08-19T23:09:23.410Z,11.97
2022-08-19T23:11:52.057Z,13.27
2022-08-19T23:14:20.462Z,13.13
2022-08-19T23:16:51.287Z,13.60
2022-08-19T23:19:22.120Z,13.50
2022-08-19T23:21:52.599Z,13.17
2022-08-19T23:24:20.939Z,13.43
2022-08-19T23:27:07.230Z,14.07
2022-08-19T23:29:53.414Z,13.30
2022-08-19T23:32:22.675Z,13.67
2022-08-19T23:34:52.333Z,12.57
2022-08-19T23:37:20.704Z,13.20
2022-08-19T23:39:50.175Z,13.67
2022-08-19T23:42:18.534Z,13.07
2022-08-19T23:44:52.195Z,13.07
2022-08-19T23:47:21.926Z,13.83
2022-08-19T23:49:51.700Z,14.47
2022-08-19T23:52:20.109Z,13.73
2022-08-19T23:54:48.626Z,13.57
2022-08-19T23:57:16.952Z,13.37
2022-08-19T23:59:46.200Z,13.80
